x

8454000 - Providence, Ri (foxr1) Weather Station

11:30 - Mon 25th May 2015 All times are EDT. -4 hours from GMT.

  • Wind
    10mph, 14mph gusts
  • Sea Temp 59°f
  • Aire Temp 68°f
  • Sea Pressure 1023.8mb
  • 8454000 - Providence, Ri
  • 8454000 - Providence, Ri

More Historic Weather Station data

Upgrade to MSW Pro to gain access to the past 30 days of data for over 8000 Wavebouys and Weather Stations around the globe.

Join Pro

Comparision Forecast

View Surf forecast
   
lun 05/25 11:30 10 14 mph 1023.8mb 59f 68f
11:24 11 15 mph 1023.8mb 59f 68f
11:18 9 14 mph 1023.9mb 59f 68f
11:12 10 13 mph 1023.9mb 59f 68f
11:06 11 14 mph 1023.9mb 59f 68f
11:00 11 14 mph 1023.8mb 59f 68f
10:54 9 11 mph 1023.8mb 59f 69f
10:48 10 14 mph 1023.8mb 59f 68f
10:42 9 10 mph 1023.8mb 59f 69f
10:36 10 14 mph 1023.7mb 59f 69f
10:30 10 14 mph 1023.7mb 59f 69f
10:24 8 9 mph 1023.7mb 59f 70f
10:18 7 10 mph 1023.8mb 59f 71f
10:12 6 11 mph 1023.7mb 59f 71f
10:06 9 11 mph 1023.7mb 59f 69f
10:00 7 10 mph 1023.7mb 59f 70f
9:54 6 8 mph 1023.7mb 59f 68f
9:48 7 9 mph 1023.8mb 59f 68f
9:42 7 9 mph 1023.8mb 59f 68f
9:36 7 10 mph 1023.8mb 59f 68f
9:30 8 10 mph 1023.8mb 59f 68f
9:24 2 7 mph 1023.8mb 59f 70f
9:18 6 9 mph 1023.8mb 59f 68f
9:12 6 9 mph 1023.8mb 59f 68f
9:06 8 9 mph 1023.9mb 59f 67f
9:00 8 9 mph 1023.9mb 59f 66f
8:54 7 9 mph 1023.9mb 59f 66f
8:48 7 8 mph 1023.8mb 59f 64f
8:42 8 9 mph 1023.9mb 59f 64f
8:36 8 10 mph 1023.9mb 59f 63f
8:30 8 11 mph 1023.9mb 59f 63f
8:24 9 10 mph 1023.9mb 59f 62f
8:18 9 10 mph 1024mb 59f 62f
8:12 8 10 mph 1024mb 59f 62f
8:06 9 11 mph 1024mb 59f 62f
8:00 9 11 mph 1024mb 59f 61f
7:54 8 11 mph 1024mb 59f 61f
7:48 10 11 mph 1024mb 59f 61f
7:42 8 9 mph 1024mb 59f 61f
7:36 7 8 mph 1024mb 59f 61f
7:30 6 8 mph 1024mb 59f 62f
7:24 6 8 mph 1024mb 59f 63f
7:18 6 9 mph 1024.1mb 59f 62f
7:12 7 8 mph 1024.1mb 59f 62f
7:06 6 7 mph 1024mb 59f 61f
7:00 6 8 mph 1024mb 59f 61f
6:54 6 8 mph 1023.9mb 59f 61f
6:48 6 8 mph 1023.9mb 59f 61f
6:42 7 8 mph 1023.9mb 59f 60f
6:36 6 8 mph 1023.9mb 59f 60f
6:30 6 8 mph 1023.9mb 59f 59f
6:24 6 8 mph 1023.9mb 59f 59f
6:18 6 8 mph 1023.9mb 59f 58f
6:12 7 8 mph 1023.9mb 59f 58f
6:06 6 8 mph 1024mb 59f 58f
6:00 6 7 mph 1024mb 59f 58f
5:54 7 9 mph 1023.9mb 59f 57f
5:48 7 8 mph 1024mb 59f 57f
5:42 6 8 mph 1023.9mb 59f 57f
5:36 6 7 mph 1023.9mb 59f 57f
5:30 5 6 mph 1023.8mb 59f 57f
5:24 5 7 mph 1023.8mb 59f 57f
5:18 6 7 mph 1023.8mb 59f 57f
5:12 5 7 mph 1023.7mb 59f 57f
5:06 6 8 mph 1023.6mb 59f 57f
5:00 6 8 mph 1023.6mb 59f 57f
4:54 6 7 mph 1023.5mb 59f 57f
4:48 5 6 mph 1023.4mb 59f 58f
4:42 5 6 mph 1023.4mb 59f 58f
4:36 3 6 mph 1023.3mb 59f 58f
4:30 5 6 mph 1023.3mb 59f 58f
4:24 6 7 mph 1023.3mb 59f 58f
4:18 6 7 mph 1023.3mb 59f 58f
4:12 5 6 mph 1023.3mb 59f 58f
4:06 6 7 mph 1023.3mb 58f 59f
4:00 5 6 mph 1023.3mb 58f 59f
3:54 5 6 mph 1023.2mb 58f 59f
3:48 3 5 mph 1023.1mb 58f 59f
3:42 5 7 mph 1023.2mb 58f 59f
3:36 6 7 mph 1023mb 58f 59f
3:30 5 8 mph 1023.1mb 58f 59f
3:24 6 7 mph 1023.1mb 58f 59f
3:18 6 7 mph 1023.1mb 58f 59f
3:12 6
mph
1023.1mb 58f 59f
3:06 6
mph
1023.1mb 58f 59f
3:00 5
mph
1023.1mb 58f 60f
2:54 5 6 mph 1023.1mb 58f 60f
2:48 5 6 mph - - -
2:42 3 6 mph - 58f 60f
2:36 5 8 mph - 58f 61f
2:30 6 9 mph 1023.1mb 58f 61f
2:24 6 8 mph 1023.1mb 58f 61f
2:18 6 10 mph 1023.2mb 58f 61f
2:12 6 10 mph 1023.2mb 58f 61f
2:06 6 9 mph 1023.2mb 57f 61f
2:00 7 9 mph 1023.3mb 57f 61f
1:54 7 11 mph 1023.3mb 57f 61f
1:48 6 11 mph 1023.3mb 57f 62f
1:42 5 7 mph 1023.3mb 57f 62f
1:36 5 8 mph 1023.3mb 57f 62f
1:30 6 7 mph 1023.3mb 57f 61f
1:24 6 7 mph 1023.3mb 57f 62f
1:18 3 6 mph 1023.3mb 57f 62f
1:12 3 6 mph 1023.3mb 58f 62f
1:06 2 6 mph 1023.3mb 58f 62f
1:00 3 7 mph 1023.4mb 58f 62f
12:54 6 10 mph 1023.4mb 58f 62f
12:48 6 8 mph 1023.5mb 58f 62f
12:42 7 11 mph 1023.5mb 58f 63f
12:36 5 9 mph 1023.5mb 58f 63f
12:30 2 6 mph 1023.5mb 58f 63f
12:24 3 10 mph 1023.6mb 58f 63f
12:18 5 9 mph 1023.6mb 58f 63f
12:12 6 9 mph 1023.5mb 58f 63f
12:06 7 11 mph 1023.4mb 58f 63f
12:00 6 9 mph 1023.5mb 58f 63f
dom 05/24 11:54 5 9 mph 1023.5mb 58f 63f
11:48 6 10 mph 1023.6mb 58f 63f
11:42 6 10 mph 1023.6mb 58f 63f
11:36 7 10 mph 1023.7mb 58f 64f
11:30 6 9 mph 1023.8mb 58f 64f
11:24 7 11 mph 1023.8mb 58f 64f
11:18 6 14 mph 1023.8mb 58f 64f
11:12 7 10 mph 1023.7mb 58f 64f
11:06 7 14 mph 1023.7mb 58f 64f
11:00 5 14 mph 1023.6mb 58f 64f
10:54 6 14 mph 1023.6mb 58f 64f
10:48 8 13 mph 1023.6mb 58f 65f
10:42 7 13 mph 1023.6mb 58f 65f
10:36 9 14 mph 1023.6mb 58f 65f
10:30 9 15 mph 1023.5mb 58f 65f
10:24 7 17 mph 1023.6mb 58f 65f
10:18 14 16 mph 1023.6mb 58f 65f
10:12 8 16 mph 1023.6mb 58f 65f
10:06 10 17 mph 1023.6mb 58f 65f
10:00 11 17 mph 1023.6mb 58f 65f
9:54 9 17 mph 1023.6mb 58f 65f
9:48 9 14 mph 1023.5mb 58f 65f
9:42 10 15 mph 1023.4mb 58f 66f
9:36 8 13 mph 1023.4mb 58f 66f
9:30 8 16 mph 1023.4mb 58f 66f
9:24 8 15 mph 1023.4mb 58f 66f
9:18 11 15 mph 1023.2mb 58f 66f
9:12 9 14 mph 1023.2mb 58f 67f
9:06 10 16 mph 1023.2mb 58f 67f
9:00 11 15 mph 1023.1mb 58f 67f
8:54 10 14 mph 1023mb 58f 67f
8:48 9 13 mph 1023mb 58f 67f
8:42 8 14 mph 1022.9mb 58f 68f
8:36 8 16 mph 1022.8mb 58f 68f
8:30 9 16 mph 1022.8mb 58f 68f
8:24 9 15 mph 1022.7mb 58f 68f
8:18 9 17 mph 1022.7mb 58f 69f
8:12 9 16 mph 1022.7mb 58f 69f
8:06 10 14 mph 1022.6mb 58f 69f
8:00 9 20 mph 1022.6mb 58f 69f
7:54 10 16 mph 1022.5mb 58f 69f
7:48 9 18 mph 1022.5mb 58f 70f
7:42 14 20 mph 1022.5mb 58f 70f
7:36 11 16 mph 1022.5mb 58f 71f
7:30 14 20 mph 1022.5mb 58f 71f
7:24 11 17 mph 1022.4mb 58f 71f
7:18 11 18 mph 1022.2mb 57f 72f
7:12 15 22 mph 1022.2mb 57f 72f
7:06 14 20 mph 1022.2mb 57f 72f
7:00 11 17 mph 1022.1mb 57f 73f
6:54 14 18 mph 1022mb 57f 73f
6:48 11 18 mph 1022mb 57f 73f
6:42 13 20 mph 1021.9mb 57f 74f
6:36 14 22 mph 1022mb 57f 74f
6:30 13 18 mph 1021.9mb 57f 73f
6:24 13 23 mph 1021.9mb 57f 73f
6:18 14 21 mph 1021.8mb 57f 73f
6:12 16 23 mph 1021.8mb 57f 74f
6:06 13 18 mph 1021.8mb 57f 75f
6:00 16 23 mph 1021.6mb 57f 75f
5:54 17 21 mph 1021.7mb 57f 75f
5:48 14 18 mph 1021.7mb 57f 75f
5:42 10 16 mph 1021.7mb 57f 76f
5:36 11 22 mph 1021.7mb 57f 76f
5:30 13 21 mph 1021.6mb 57f 77f
5:24 13 21 mph 1021.6mb 57f 77f
5:18 11 23 mph 1021.6mb 57f 77f
5:12 17 24 mph 1021.6mb 57f 76f
5:06 15 22 mph 1021.6mb 57f 77f
5:00 17 21 mph 1021.7mb 57f 77f
4:54 14 20 mph 1021.6mb 57f 77f
4:48 14 22 mph 1021.5mb 57f 78f
4:42 13 21 mph 1021.5mb 57f 78f
4:36 14 21 mph 1021.5mb 57f 79f
4:30 14 18 mph 1021.6mb 57f 79f
4:24 11 22 mph 1021.5mb 57f 80f
4:18 16 21 mph 1021.5mb 57f 79f
4:12 15 22 mph 1021.5mb 57f 79f
4:06 14 22 mph 1021.5mb 57f 80f
4:00 14 22 mph 1021.5mb 57f 80f
3:54 16 23 mph 1021.6mb 57f 79f
3:48 13 24 mph 1021.4mb 57f 80f
3:42 14 22 mph 1021.5mb 57f 80f
3:36 11 20 mph 1021.5mb 57f 80f
3:30 10 22 mph 1021.6mb 57f 80f
3:24 15 24 mph 1021.6mb 57f 80f
3:18 13 21 mph 1021.6mb 56f 80f
3:12 17 23 mph 1021.5mb 56f 80f
3:06 13 20 mph 1021.6mb 56f 81f
3:00 11 18 mph 1021.6mb 56f 80f
2:54 13 17 mph 1021.7mb 56f 80f
2:48 13 18 mph 1021.8mb 56f 80f
2:42 15 21 mph 1021.9mb 56f 80f
2:36 9 17 mph 1021.8mb 56f 81f
2:30 9 18 mph 1021.7mb 56f 80f
2:24 13 20 mph 1021.8mb 56f 80f
2:18 10 17 mph 1021.9mb 56f 80f
2:12 8 20 mph 1022mb 56f 80f
2:06 17 21 mph 1022mb 56f 80f
2:00 10 17 mph 1022.1mb 56f 80f
1:54 13 17 mph 1022mb 56f 80f
1:48 8 20 mph 1022.1mb 56f 80f
1:42 7 16 mph 1022.1mb 56f 80f
1:36 14 20 mph 1022.3mb 56f 80f
1:30 10 15 mph 1022.4mb 56f 80f
1:24 13 18 mph 1022.5mb 56f 79f
1:18 9 18 mph 1022.6mb 56f 79f
1:12 14 18 mph 1022.6mb 56f 80f
1:06 6 14 mph 1022.7mb 56f 80f
1:00 13 17 mph 1022.7mb 56f 79f
12:54 9 17 mph 1022.9mb 56f 78f
12:48 7 16 mph 1022.9mb 56f 78f
12:42 7 15 mph 1023mb 56f 78f
12:36 8 15 mph 1023.2mb 56f 78f
12:30 10 17 mph 1023.3mb 56f 77f
12:24 8 14 mph 1023.3mb 56f 78f
12:18 8 15 mph 1023.3mb 56f 77f
12:12 10 14 mph 1023.4mb 56f 77f
12:06 13 20 mph 1023.5mb 56f 77f
12:00 10 14 mph 1023.7mb 56f 76f
11:54 7 15 mph 1023.7mb 56f 76f
11:48 11 16 mph 1023.8mb 56f 75f
11:42 10 16 mph 1023.9mb 56f 76f
11:36 10 16 mph 1024mb 56f 75f
11:30 9 15 mph 1024mb 56f 75f
11:24 11 16 mph 1024mb 56f 74f
11:18 13 18 mph 1024mb 56f 74f
11:12 14 17 mph 1024.1mb 56f 74f
11:06 8 17 mph 1024.1mb 56f 73f
11:00 10 17 mph 1024.1mb 56f 73f
10:54 9 14 mph 1024.2mb 56f 73f
10:48 9 15 mph 1024.3mb 56f 73f
10:42 11 16 mph 1024.4mb 56f 73f
10:36 10 16 mph 1024.5mb 56f 72f
10:30 7 13 mph 1024.7mb 56f 72f
10:24 8 13 mph 1024.8mb 56f 71f
10:18 5 10 mph 1024.9mb 56f 70f
10:12 6 13 mph 1024.9mb 56f 70f
10:06 9 15 mph 1024.9mb 56f 70f
10:00 7 11 mph 1025mb 56f 70f
9:54 7 13 mph 1025mb 56f 70f
9:48 11 14 mph 1025mb 56f 69f
9:42 8 14 mph 1025mb 56f 69f
9:36 6 9 mph 1025.1mb 56f 69f
9:30 6 14 mph 1025mb 56f 68f
9:24 8 14 mph 1025mb 56f 68f
9:18 9 13 mph 1025mb 56f 68f
9:12 7 11 mph 1024.9mb 56f 68f
9:06 10 15 mph 1024.9mb 56f 67f
9:00 10 14 mph 1024.9mb 56f 66f
8:54 11 15 mph 1024.9mb 56f 66f
8:48 11 14 mph 1024.9mb 56f 66f
8:42 10 14 mph 1024.9mb 56f 65f
8:36 9 15 mph 1024.9mb 56f 65f
8:30 8 10 mph 1024.9mb 56f 65f
8:24 8 11 mph 1025mb 56f 65f
8:18 8 10 mph 1025mb 56f 64f
8:12 6 10 mph 1025mb 56f 64f
8:06 6 10 mph 1025mb 56f 63f
8:00 6 9 mph 1025mb 56f 63f
7:54 2 11 mph 1025mb 56f 62f
7:48 3 7 mph 1025.1mb 56f 59f
7:42 3 6 mph 1025.1mb 56f 59f
7:36 3 6 mph 1025.1mb 56f 59f
7:30 5 6 mph 1025.1mb 56f 58f
7:24 3 6 mph 1025.1mb 56f 58f
7:18 5 8 mph 1025.1mb 56f 57f
7:12 7 8 mph 1025mb 56f 56f
7:06 7 9 mph 1024.9mb 56f 55f
7:00 6 9 mph 1024.9mb 56f 55f
6:54 7 9 mph 1024.9mb 56f 54f
6:48 6 9 mph 1025.1mb 56f 53f
6:42 8 9 mph 1025.1mb 56f 53f
6:36 5 8 mph 1025.3mb 56f 52f
6:30 6 9 mph 1025.3mb 56f 52f
6:24 6 8 mph 1025.4mb 56f 52f
6:18 7 9 mph 1025.4mb 56f 51f
6:12 7 9 mph 1025.3mb 56f 51f
6:06 6 8 mph 1025.3mb 56f 51f
6:00 6 8 mph 1025.3mb 56f 51f
5:54 6 8 mph 1025.2mb 56f 51f
5:48 7 8 mph 1025.1mb 56f 50f
5:42 6 9 mph 1025.1mb 56f 50f
5:36 7
mph
1025.1mb 56f 50f
5:30 6 8 mph 1025mb 56f 50f
5:24 6 8 mph 1025mb 56f 50f
5:18 7 8 mph 1025mb 56f 50f
5:12 6 7 mph 1025mb 56f 50f
5:06 6 7 mph 1025.1mb 56f 50f
5:00 5 7 mph 1025.1mb 56f 50f
4:54 6 7 mph 1025.1mb 56f 50f
4:48 6 7 mph 1025.2mb 56f 50f
4:42 3 7 mph 1025.2mb 56f 50f
4:36 6 8 mph 1025.2mb 56f 50f
4:30 7
mph
1025.1mb 56f 50f
4:24 6 7 mph 1025.1mb 56f 50f
4:18 6 8 mph 1025.1mb 56f 50f
4:12 6 10 mph 1025.2mb 56f 50f
4:06 6 8 mph 1025.3mb 56f 51f
4:00 5 7 mph 1025.4mb 56f 50f
3:54 5 6 mph 1025.3mb 56f 50f
3:48 5 7 mph 1025.3mb 56f 51f
3:42 5 7 mph 1025.3mb 56f 51f
3:36 5 6 mph 1025.4mb 56f 51f
3:30 5 6 mph 1025.4mb 56f 51f
3:24 5 6 mph 1025.4mb 56f 51f
3:18 6 8 mph 1025.4mb 56f 51f
3:12 6 7 mph 1025.5mb 56f 51f
3:06 5 8 mph 1025.5mb 56f 51f
3:00 5 7 mph 1025.5mb 56f 51f
2:54 3 8 mph 1025.6mb 56f 51f
2:48 5 7 mph 1025.6mb 56f 52f
2:42 6 7 mph 1025.6mb 56f 52f
2:36 3 7 mph 1025.7mb 56f 52f
2:30 5 7 mph 1025.7mb 56f 52f
2:24 6 9 mph 1025.8mb 56f 52f
2:18 5 8 mph 1025.7mb 56f 52f
2:12 5 8 mph 1025.7mb 56f 52f
2:06 6 8 mph 1025.6mb 56f 52f
2:00 6 8 mph - 56f 52f
1:54 7 11 mph - 56f 52f
1:48 7 10 mph 1025.5mb 56f 52f
1:42 7 10 mph 1025.5mb 56f 52f
1:36 7 10 mph 1025.6mb 56f 52f
1:30 6 9 mph 1025.6mb 56f 52f
1:24 7 9 mph 1025.7mb 56f 52f
1:18 6 7 mph 1025.8mb 56f 52f
1:12 5 7 mph 1025.9mb 56f 52f
1:06 2 7 mph 1025.9mb 56f 52f
1:00 5 7 mph 1026mb 56f 52f
12:54 6 8 mph 1025.9mb 56f 52f
12:48 5 7 mph 1025.9mb 56f 53f
12:42 6 8 mph 1025.9mb 56f 53f
12:36 7 8 mph 1025.9mb 56f 53f
12:30 6 9 mph 1025.9mb 56f 53f
12:24 6 9 mph 1026mb 56f 53f
12:18 6 9 mph 1026mb 56f 53f
12:12 7 10 mph 1026mb 56f 53f
12:06 7 11 mph 1026mb 56f 53f
12:00 3 9 mph 1025.9mb 56f 53f
sáb 05/23 11:54 9 13 mph 1025.9mb 56f 53f
11:48 7 11 mph 1025.9mb 56f 54f
11:42 9 14 mph 1025.8mb 56f 54f
11:36 9 14 mph 1025.9mb 56f 54f
11:30 9 14 mph 1025.9mb 56f 54f
11:24 9 11 mph 1026mb 56f 54f
11:18 6 11 mph 1025.9mb 56f 54f
11:12 6 10 mph 1025.9mb 56f 54f
11:06 7 13 mph 1025.9mb 56f 55f
11:00 7 10 mph 1025.8mb 56f 55f
10:54 6 9 mph 1025.8mb 56f 55f
10:48 7 11 mph 1025.7mb 56f 55f
10:42 8 13 mph 1025.6mb 55f 55f
10:36 8 11 mph 1025.7mb 56f 55f
10:30 9 13 mph 1025.6mb 56f 55f
10:24 10 13 mph 1025.7mb 56f 55f
10:18 7 11 mph 1025.8mb 56f 55f
10:12 6 11 mph 1025.8mb 56f 56f
10:06 6 13 mph 1025.8mb 56f 56f
10:00 8 14 mph 1025.8mb 56f 56f
9:54 10 15 mph 1025.8mb 56f 56f
9:48 11 14 mph 1025.8mb 56f 56f
9:42 8 13 mph 1025.7mb 56f 57f
9:36 8 13 mph 1025.7mb 56f 57f
9:30 7 10 mph 1025.6mb 56f 57f
9:24 7 10 mph 1025.5mb 56f 58f
9:18 8 14 mph 1025.5mb 56f 58f
9:12 10 13 mph 1025.5mb 56f 58f
9:06 7 10 mph 1025.4mb 56f 58f
9:00 10 16 mph 1025.4mb 56f 59f
8:54 8 15 mph 1025.4mb 56f 59f
8:48 9 14 mph 1025.3mb 56f 60f
8:42 9 13 mph 1025.2mb 56f 60f
8:36 7 8 mph 1025.2mb 56f 61f
8:30 5 8 mph 1025.1mb 56f 62f
8:24 5 8 mph 1025mb 56f 62f
8:18 6 8 mph 1025mb 56f 62f
8:12 6 8 mph 1025mb 56f 62f
8:06 6 10 mph 1025mb 56f 63f
8:00 6 7 mph 1025mb 56f 63f
7:54 6 9 mph 1025.1mb 56f 63f
7:48 6 10 mph 1025.1mb 56f 64f
7:42 9 13 mph 1025mb 56f 64f
7:36 8 13 mph 1025mb 56f 64f
7:30 7 14 mph 1025mb 56f 64f
7:24 9 15 mph 1024.9mb 56f 64f
7:18 13 16 mph 1024.8mb 56f 65f
7:12 8 14 mph 1024.8mb 56f 65f
7:06 9 17 mph 1024.9mb 56f 65f
7:00 7 10 mph 1024.9mb 57f 65f
6:54 9 14 mph 1024.9mb 57f 65f
6:48 9 16 mph 1024.9mb 57f 65f
6:42 8 13 mph 1024.8mb 57f 65f
6:36 7 13 mph 1024.8mb 56f 65f
6:30 8 13 mph 1024.8mb 56f 65f
6:24 9 17 mph 1024.7mb 56f 65f
6:18 10 15 mph 1024.7mb 56f 65f
6:12 9 14 mph 1024.7mb 56f 65f
6:06 7 16 mph 1024.7mb 56f 65f
6:00 10 16 mph 1024.6mb 56f 65f
5:54 14 20 mph 1024.6mb 56f 65f
5:48 10 18 mph 1024.6mb 56f 66f
5:42 8 15 mph 1024.6mb 56f 65f
5:36 11 15 mph 1024.6mb 56f 65f
5:30 7 16 mph 1024.7mb 56f 65f
5:24 13 20 mph 1024.7mb 56f 65f
5:18 11 18 mph 1024.7mb 56f 65f
5:12 11 14 mph 1024.7mb 56f 65f
5:06 10 16 mph 1024.6mb 56f 65f
5:00 15 20 mph 1024.7mb 56f 64f
4:54 10 17 mph 1024.7mb 56f 65f
4:48 13 18 mph 1024.7mb 56f 65f
4:42 11 20 mph 1024.8mb 56f 65f
4:36 8 17 mph 1024.7mb 56f 65f
4:30 10 16 mph 1024.8mb 56f 65f
4:24 8 18 mph 1024.8mb 55f 64f
4:18 11 15 mph 1024.8mb 55f 65f
4:12 9 17 mph 1024.9mb 55f 65f
4:06 14 20 mph 1024.9mb 55f 64f
4:00 10 18 mph 1025mb 55f 64f
3:54 9 20 mph 1025.2mb 55f 64f
3:48 9 18 mph 1025.2mb 55f 64f
3:42 11 16 mph 1025.3mb 55f 63f
3:36 11 17 mph 1025.4mb 55f 64f
3:30 11 18 mph 1025.4mb 55f 64f
3:24 8 14 mph 1025.4mb 55f 64f
3:18 7 16 mph 1025.5mb 55f 62f
3:12 8 20 mph 1025.5mb 55f 63f
3:06 6 15 mph 1025.5mb 55f 63f
3:00 6 14 mph 1025.7mb 55f 63f
2:54 9 20 mph 1025.8mb 55f 63f
2:48 13 17 mph - - -
2:42 10 18 mph 1025.7mb 55f 61f
2:36 11 17 mph 1025.8mb 55f 62f
2:30 14 17 mph 1025.9mb 55f 60f
2:24 10 22 mph 1025.9mb 55f 61f
2:18 14 22 mph 1026mb 55f 60f
2:12 7 15 mph 1026mb 55f 61f
2:06 16 22 mph 1026.1mb 55f 61f
2:00 6 23 mph 1026.1mb 55f 60f
1:54 8 15 mph 1026.1mb 55f 61f
1:48 9 17 mph 1026.2mb 55f 60f
1:42 9 15 mph 1026.1mb 55f 60f
1:36 14 20 mph 1026.2mb 55f 60f
1:30 7 17 mph 1026.3mb 55f 60f
1:24 9 13 mph 1026.3mb 55f 59f
1:18 11 17 mph 1026.4mb 55f 59f
1:12 7 21 mph 1026.4mb 55f 58f
1:06 7 14 mph 1026.4mb 55f 59f
1:00 10 17 mph 1026.5mb 55f 58f
12:54 11 17 mph 1026.5mb 55f 58f
12:48 6 17 mph 1026.5mb 55f 58f
12:42 14 20 mph 1026.5mb 55f 58f
12:36 15 21 mph 1026.5mb 55f 58f
12:30 10 17 mph 1026.6mb 55f 57f
12:24 15 21 mph 1026.6mb 55f 57f
12:18 8 17 mph 1026.7mb 55f 57f
12:12 13 21 mph 1026.6mb 56f 57f
12:06 8 15 mph 1026.7mb 56f 56f
12:00 6 16 mph 1026.6mb 56f 56f
11:54 13 20 mph 1026.6mb 56f 56f
11:48 8 14 mph 1026.5mb 56f 57f
11:42 10 16 mph 1026.6mb 56f 56f
11:36 11 17 mph 1026.5mb 56f 55f
11:30 14 17 mph 1026.7mb 56f 55f
11:24 9 15 mph 1026.7mb 56f 55f
11:18 9 22 mph 1026.7mb 56f 56f
11:12 14 21 mph 1026.7mb 56f 54f
11:06 10 16 mph 1026.8mb 56f 54f
11:00 6 8 mph 1026.7mb 56f 53f
10:54 6 14 mph 1026.7mb 56f 53f
10:48 9 14 mph 1026.8mb 56f 53f
10:42 8 14 mph 1026.7mb 56f 53f
10:36 8 14 mph 1026.6mb 55f 53f
10:30 10 16 mph 1026.7mb 55f 53f
10:24 7 14 mph 1026.7mb 56f 52f
10:18 10 15 mph 1026.6mb 56f 52f
10:12 11 21 mph 1026.7mb 56f 52f
10:06 10 16 mph 1026.6mb 56f 53f
10:00 8 17 mph 1026.6mb 56f 51f
9:54 6 11 mph 1026.7mb 56f 51f
9:48 7 18 mph 1026.6mb 56f 50f
9:42 11 18 mph 1026.6mb 56f 51f
9:36 8 16 mph 1026.5mb 56f 50f
9:30 13 17 mph 1026.6mb 56f 50f
9:24 13 22 mph 1026.6mb 56f 50f
9:18 9 15 mph 1026.6mb 56f 50f
9:12 11 17 mph 1026.6mb 56f 49f
9:06 13 20 mph 1026.5mb 56f 50f
9:00 10 15 mph 1026.5mb 56f 51f
8:54 11 21 mph 1026.5mb 56f 49f
8:48 13 22 mph 1026.6mb 56f 49f
8:42 8 15 mph 1026.4mb 56f 49f
8:36 14 20 mph 1026.5mb 56f 48f
8:30 8 20 mph 1026.4mb 56f 49f
8:24 10 15 mph 1026.3mb 56f 49f
8:18 9 16 mph 1026.4mb 56f 49f
8:12 9 13 mph 1026.4mb 56f 48f
8:06 11 20 mph 1026.3mb 56f 48f
8:00 13 16 mph 1026.2mb 56f 47f
7:54 11 22 mph 1026.1mb 56f 49f
7:48 8 17 mph 1026.1mb 56f 48f
7:42 13 16 mph 1026mb 56f 47f
7:36 10 15 mph 1026.1mb 56f 47f
7:30 10 17 mph 1026mb 56f 48f
7:24 9 16 mph 1026mb 56f 48f
7:18 11 15 mph 1025.9mb 56f 47f
7:12 10 16 mph 1025.9mb 56f 47f
7:06 15 18 mph 1025.8mb 56f 47f
7:00 13 20 mph 1025.6mb 56f 47f
6:54 15 20 mph 1025.5mb 56f 47f
6:48 9 17 mph 1025.5mb 56f 47f
6:42 16 21 mph 1025.3mb 56f 47f
6:36 14 22 mph 1025.3mb 56f 47f
6:30 9 17 mph 1025.2mb 56f 47f
6:24 9 14 mph 1025.1mb 56f 47f
6:18 10 14 mph 1025.1mb 56f 47f
6:12 9 14 mph 1025mb 56f 47f
6:06 13 16 mph 1024.8mb 56f 47f
6:00 11 16 mph 1024.7mb 56f 47f
5:54 11 16 mph 1024.5mb 56f 48f
5:48 8 13 mph 1024.4mb 56f 48f
5:42 9 14 mph 1024.2mb 56f 47f
5:36 7 10 mph 1024mb 56f 47f
5:30 11 14 mph 1023.9mb 56f 47f
5:24 10 14 mph 1023.6mb 56f 47f
5:18 8 14 mph 1023.4mb 56f 48f
5:12 9 13 mph 1023.3mb 56f 48f
5:06 10 14 mph 1023.1mb 56f 48f
5:00 7 16 mph 1023mb 56f 48f
4:54 10 14 mph 1022.8mb 56f 48f
4:48 6 11 mph 1022.6mb 56f 49f
4:42 10 15 mph 1022.4mb 56f 49f
4:36 8 15 mph 1022.3mb 56f 49f
4:30 8 17 mph 1022mb 56f 49f
4:24 9 16 mph 1021.8mb 56f 49f
4:18 8 14 mph 1021.7mb 56f 49f
4:12 8 15 mph 1021.5mb 56f 50f
4:06 7 11 mph 1021.3mb 56f 50f
4:00 8 15 mph 1021.3mb 56f 50f
3:54 8 18 mph 1021.3mb 56f 50f
3:48 11 17 mph 1021.1mb 56f 51f
3:42 13 17 mph 1021mb 56f 52f
3:36 10 14 mph 1020.8mb 56f 52f
3:30 8 11 mph 1020.6mb 56f 52f
3:24 10 14 mph 1020.5mb 56f 52f
3:18 7 16 mph 1020.4mb 56f 52f
3:12 9 15 mph 1020.2mb 56f 53f
3:06 10 14 mph 1020.1mb 56f 53f
3:00 10 20 mph 1020mb 56f 53f
2:54 13 18 mph 1019.8mb 56f 53f
2:48 9 15 mph - 56f 53f
2:42 9 15 mph - 56f 54f
2:36 9 13 mph - 56f 54f
2:30 10 15 mph 1019.5mb 56f 54f
2:24 10 14 mph 1019.4mb 56f 54f
2:18 10 16 mph 1019.2mb - -
2:12 7 18 mph 1019.1mb 56f 55f
2:06 9 15 mph 1019mb 56f 55f
2:00 10 14 mph 1019mb 56f 55f
1:54 8 13 mph 1018.9mb 56f 55f
1:48 9 14 mph 1018.8mb 56f 55f
1:42 9 16 mph 1018.6mb 56f 56f
1:36 11 20 mph 1018.5mb 56f 56f
1:30 11 20 mph 1018.4mb 56f 56f
1:24 11 21 mph 1018.4mb 56f 56f
1:18 10 15 mph 1018.3mb 56f 56f
1:12 9 20 mph 1018.3mb 56f 56f
1:06 14 22 mph 1018.2mb 56f 56f
1:00 10 18 mph 1018.2mb 56f 56f
12:54 14 21 mph 1018.1mb 56f 57f
12:48 14 21 mph 1018mb 56f 57f
12:42 13 23 mph 1018mb 56f 57f
12:36 10 20 mph 1018mb 56f 57f
12:30 10 16 mph 1018mb 56f 57f
12:24 9 16 mph 1017.9mb 56f 57f
12:18 9 14 mph 1017.9mb 56f 58f
12:12 9 14 mph 1017.9mb 56f 58f
12:06 8 15 mph 1017.8mb 56f 58f
12:00 11 16 mph 1017.8mb 56f 58f
vie 05/22 11:54 11 18 mph 1017.8mb 56f 58f
11:48 10 20 mph 1017.8mb 56f 58f
11:42 9 16 mph 1017.7mb 56f 58f
11:36 10 21 mph 1017.7mb 56f 59f
11:30 9 20 mph 1017.7mb 56f 59f
11:24 10 15 mph 1017.6mb 56f 59f
11:18 8 16 mph 1017.5mb 56f 59f
11:12 11 20 mph 1017.4mb 56f 59f
11:06 14 18 mph 1017.3mb 56f 59f
11:00 13 20 mph 1017.2mb 56f 60f
10:54 13 21 mph 1017.1mb 56f 60f
10:48 9 14 mph 1017.1mb 56f 60f
10:42 7 15 mph 1017.1mb 56f 60f
10:36 9 15 mph 1017mb 56f 60f
10:30 10 15 mph 1016.8mb 56f 60f
10:24 13 20 mph 1016.7mb 56f 60f
10:18 11 17 mph 1016.6mb 56f 61f
10:12 10 17 mph 1016.5mb 56f 61f
10:06 13 18 mph 1016.4mb 57f 61f
10:00 11 17 mph 1016.3mb 57f 61f
9:54 14 22 mph 1016.3mb 57f 61f
9:48 17 23 mph 1016.2mb 57f 62f
9:42 15 20 mph 1016.2mb 57f 62f
9:36 15 24 mph 1016mb 57f 62f
9:30 15 20 mph 1015.9mb 57f 62f
9:24 16 26 mph 1015.7mb 57f 63f
9:18 15 21 mph 1015.7mb 57f 63f
9:12 10 20 mph 1015.5mb 57f 63f
9:06 11 21 mph 1015.3mb 57f 63f
9:00 11 20 mph 1015.2mb 57f 64f
8:54 10 18 mph 1015mb 57f 64f
8:48 11 23 mph 1014.8mb 57f 64f
8:42 11 18 mph 1014.7mb 58f 64f
8:36 13 21 mph 1014.5mb 58f 64f
8:30 16 22 mph 1014.3mb 58f 65f
8:24 17 23 mph 1014.1mb 58f 65f
8:18 17 23 mph 1014mb 58f 65f
8:12 17 25 mph 1013.8mb 58f 65f
8:06 17 25 mph 1013.6mb 58f 65f
8:00 14 22 mph 1013.6mb 58f 66f
7:54 15 22 mph 1013.5mb 58f 66f
7:48 14 20 mph 1013.4mb 58f 67f
7:42 7 18 mph 1013.2mb 58f 67f
7:36 16 22 mph 1013mb 58f 67f
7:30 14 23 mph 1012.9mb 58f 67f
7:24 13 28 mph 1012.8mb 58f 68f
7:18 14 21 mph 1012.5mb 58f 68f
7:12 15 24 mph 1012.3mb 58f 68f
7:06 18 26 mph 1012.2mb 58f 68f
7:00 17 26 mph 1012mb 58f 68f
6:54 14 26 mph 1011.9mb 58f 69f
6:48 21 26 mph 1011.8mb 59f 69f
6:42 15 26 mph 1011.6mb 59f 69f
6:36 17 28 mph 1011.5mb 59f 69f
6:30 16 24 mph 1011.4mb 59f 70f
6:24 16 24 mph 1011.4mb 59f 70f
6:18 17 25 mph 1011.2mb 59f 70f
6:12 15 29 mph 1011.1mb 59f 70f
6:06 13 20 mph 1011mb 59f 70f
6:00 16 28 mph 1011mb 59f 70f
5:54 20 26 mph 1010.8mb 59f 71f
5:48 20 29 mph 1010.8mb 59f 71f
5:42 18 26 mph 1010.8mb 59f 71f
5:36 24 34 mph 1010.7mb 59f 71f
5:30 14 21 mph 1010.6mb 59f 72f
5:24 13 25 mph 1010.6mb 59f 72f
5:18 16 26 mph 1010.4mb 59f 72f
5:12 17 28 mph 1010.3mb 59f 72f
5:06 13 25 mph 1010.2mb 59f 72f
5:00 18 25 mph 1010.1mb 58f 72f
4:54 13 23 mph 1010mb 58f 73f
4:48 16 25 mph 1009.8mb 58f 73f
4:42 14 26 mph 1009.7mb 58f 73f
4:36 13 28 mph 1009.5mb 58f 73f
4:30 17 24 mph 1009.4mb 58f 72f
4:24 14 26 mph 1009.5mb 58f 73f
4:18 20 26 mph 1009.3mb 58f 72f
4:12 20 29 mph 1009.3mb 58f 72f
4:06 14 25 mph 1009.3mb 58f 73f
4:00 10 16 mph 1009.3mb 58f 73f
3:54 13 17 mph 1009.3mb 58f 73f
3:48 15 23 mph 1009.2mb 58f 72f
3:42 16 28 mph 1009.2mb 58f 72f
3:36 15 20 mph 1009.1mb 58f 72f
3:30 16 22 mph 1009.1mb 58f 71f
3:24 10 17 mph 1009mb 58f 72f
3:18 15 24 mph 1009mb 58f 72f
3:12 15 22 mph 1009mb 58f 72f
3:06 14 21 mph 1009mb 58f 72f
3:00 15 21 mph 1008.9mb 57f 72f
2:54 8 21 mph 1008.9mb 57f 73f
2:48 11 21 mph 1008.8mb 57f 72f
2:42 11 22 mph 1008.8mb 57f 72f
2:36 16 22 mph 1008.7mb 57f 72f
2:30 11 22 mph 1008.6mb 57f 73f
2:24 16 23 mph 1008.6mb 57f 73f
2:18 14 18 mph 1008.5mb 57f 72f
2:12 14 23 mph 1008.6mb 57f 72f
2:06 18 24 mph 1008.4mb 57f 73f
2:00 10 26 mph 1008.5mb 57f 73f
1:54 13 25 mph 1008.6mb 57f 73f
1:48 14 28 mph 1008.5mb 57f 73f
1:42 18 26 mph 1008.5mb 57f 73f
1:36 16 24 mph 1008.5mb 57f 73f
1:30 23 32 mph 1008.4mb 57f 72f
1:24 11 20 mph 1008.4mb 57f 72f
1:18 11 22 mph 1008.5mb 57f 71f
1:12 15 22 mph 1008.5mb 57f 72f
1:06 15 26 mph 1008.5mb 57f 72f
1:00 17 23 mph 1008.6mb 57f 72f
12:54 9 21 mph 1008.7mb 57f 73f
12:48 14 24 mph 1008.7mb 56f 71f
12:42 11 18 mph 1008.7mb 56f 71f
12:36 13 16 mph 1008.8mb 56f 71f
12:30 14 21 mph 1008.8mb 56f 72f
12:24 10 20 mph 1008.8mb 56f 71f
12:18 7 24 mph 1008.8mb 56f 70f
12:12 8 26 mph 1008.8mb 56f 70f
12:06 14 22 mph 1008.9mb 56f 71f
12:00 15 22 mph 1009.1mb 56f 71f
11:54 14 20 mph 1009.1mb 56f 71f
11:48 11 18 mph 1008.9mb 56f 71f
11:42 6 13 mph 1009.1mb 56f 70f
11:36 14 16 mph 1009.1mb 56f 69f
11:30 11 24 mph 1009.1mb 56f 69f
11:24 14 18 mph 1009.2mb 56f 69f
11:18 17 22 mph 1009.2mb 56f 69f
11:12 17 23 mph 1009.3mb 56f 68f
11:06 8 14 mph 1009.2mb 56f 68f
11:00 11 16 mph 1009.1mb 56f 68f
10:54 15 18 mph 1009.2mb 56f 67f
10:48 9 17 mph 1009.3mb 56f 68f
10:42 8 14 mph 1009.3mb 56f 68f
10:36 6 11 mph 1009.2mb 56f 67f
10:30 9 17 mph 1009.2mb 56f 66f
10:24 14 17 mph 1009.2mb 56f 66f
10:18 10 16 mph 1009.1mb 56f 66f
10:12 11 14 mph 1009.1mb 56f 66f
10:06 14 17 mph 1009.1mb 56f 65f
10:00 10 14 mph 1009.1mb 56f 65f
9:54 10 18 mph 1009.2mb 57f 65f
9:48 14 20 mph 1009.2mb 57f 65f
9:42 13 18 mph 1009.1mb 57f 64f
9:36 13 21 mph 1009.1mb 57f 65f
9:30 8 13 mph 1009.1mb 57f 65f
9:24 7 17 mph 1009mb 57f 64f
9:18 14 17 mph 1009.1mb 57f 64f
9:12 11 15 mph 1009mb 57f 63f
9:06 11 17 mph 1009mb 57f 63f
9:00 10 17 mph 1009.1mb 57f 63f
8:54 8 15 mph 1009.1mb 58f 64f
8:48 14 17 mph 1009.1mb 57f 61f
8:42 10 17 mph 1009.1mb 58f 61f
8:36 10 16 mph 1009.2mb 58f 62f
8:30 13 17 mph 1009.2mb 58f 62f
8:24 14 17 mph 1009.2mb 58f 60f
8:18 13 15 mph 1009.1mb 58f 61f
8:12 7 15 mph 1009.1mb 58f 60f
8:06 10 16 mph 1009.1mb 58f 60f
8:00 9 14 mph 1009.2mb 58f 59f
7:54 8 11 mph 1009.2mb 58f 58f
7:48 9 15 mph 1009.2mb 58f 57f
7:42 9 14 mph 1009.2mb 58f 56f
7:36 10 14 mph 1009.2mb 58f 55f
7:30 7 11 mph 1009.2mb 58f 55f
7:24 7 10 mph 1009.2mb 58f 55f
7:18 6 13 mph 1009.2mb 58f 54f
7:12 6 9 mph 1009.3mb 58f 54f
7:06 5 10 mph 1009.3mb 58f 54f
7:00 5 7 mph 1009.3mb 58f 54f
6:54 5 8 mph 1009.3mb 58f 53f
6:48 6 8 mph 1009.3mb 58f 53f
6:42 5 8 mph 1009.2mb 58f 53f
6:36 2 8 mph 1009.2mb 58f 53f
6:30 5 6 mph 1009.2mb 58f 53f
6:24 5 7 mph 1009.2mb 58f 53f
6:18 6 9 mph 1009.2mb 58f 53f
6:12 7 10 mph 1009mb 58f 52f
6:06 7 8 mph 1009.2mb 58f 52f
6:00 3 5 mph 1009.1mb 58f 52f
5:54 3 5 mph 1009.2mb 58f 52f
5:48 2 3 mph 1009mb 58f 52f
5:42 3 6 mph 1009.2mb 58f 52f
5:36 6
mph
1009.4mb 58f 52f
5:30 5 6 mph 1009.3mb 58f 52f
5:24 5 7 mph 1009.3mb 58f 52f
5:18 3 8 mph 1009.3mb 58f 52f
5:12 8 10 mph 1009.4mb 58f 52f
5:06 3 7 mph 1009.3mb 58f 52f
5:00 5 7 mph 1009.5mb 58f 52f
4:54 6 7 mph 1009.4mb 58f 51f
4:48 2 5 mph 1009.4mb 58f 51f
4:42 3 6 mph 1009.4mb 58f 51f
4:36 3 7 mph 1009.6mb 58f 52f
4:30 5 7 mph 1009.4mb 58f 51f
4:24 5 6 mph 1009.3mb 58f 52f
4:18 2 5 mph 1009.3mb 58f 52f
4:12 2 6 mph 1009.1mb 58f 51f
4:06 5 6 mph 1009.2mb 58f 51f
4:00 3 6 mph 1009.2mb 58f 51f
3:54 3 6 mph 1009.4mb 58f 51f
3:48 7 9 mph 1009.5mb 58f 51f
3:42 6 9 mph 1009.4mb 58f 51f
3:36 6 10 mph 1009.6mb 58f 51f
3:30 7 9 mph 1009.5mb 58f 52f
3:24 7 10 mph 1009.5mb 58f 52f
3:18 6 9 mph 1009.5mb 57f 52f
3:12 7 9 mph 1009.6mb 57f 52f
3:06 7 9 mph 1009.6mb 57f 52f
3:00 7 8 mph 1009.6mb 57f -
2:54 6 8 mph 1009.6mb 57f -
2:48 6 8 mph 1009.5mb 57f 53f
2:42 6 7 mph 1009.7mb 57f 53f
2:36 5 7 mph 1009.6mb 57f 53f
2:30 5 7 mph 1009.6mb 57f 53f
2:24 5 6 mph 1009.7mb 57f 53f
2:18 5 6 mph 1009.6mb 57f 53f
2:12 6 7 mph 1009.6mb 57f 53f
2:06 6 8 mph 1009.8mb 57f 54f
2:00  -  mph 1009.7mb 57f 54f
1:54  -  mph 1009.9mb 57f 54f
1:48 5 7 mph 1009.9mb 57f 54f
1:42 5 6 mph 1009.8mb 57f 54f
1:36 2 8 mph 1010mb 57f 54f
1:30 6 7 mph 1010.2mb 57f 54f
1:24 5 7 mph 1010.2mb 57f 54f
1:18 5 7 mph 1010.2mb 57f 54f
1:12 5 7 mph 1010.4mb 57f 54f
1:06 6 7 mph 1010.5mb 57f 54f
1:00 7 8 mph 1010.5mb 57f 54f
12:54 6 10 mph 1010.4mb 57f 54f
12:48 6 8 mph 1010.5mb 57f 54f
12:42 5 7 mph 1010.5mb 57f 55f
12:36 5 7 mph 1010.4mb 57f 55f
12:30 5 7 mph 1010.3mb 57f 55f
12:24 6 7 mph 1010.4mb 57f 55f
12:18 6 8 mph 1010.4mb 57f 55f
12:12 5 7 mph 1010.6mb 56f 55f
12:06 6 7 mph 1010.7mb 56f 55f
12:00 6 9 mph 1010.9mb 56f 55f
jue 05/21 11:54 6 9 mph 1010.8mb 56f 55f
11:48 6 10 mph 1011mb 56f 55f
11:42 6 9 mph 1011.1mb 56f 55f
11:36 2 6 mph 1011.2mb 56f 55f
11:30 3 9 mph 1011.2mb 56f 55f
11:24 9 11 mph 1011.4mb 56f 55f
11:18 7 10 mph 1011.4mb 56f 55f
11:12 8 13 mph 1011.6mb 56f 55f
11:06 8 10 mph 1011.6mb 56f 55f
11:00 7 9 mph 1011.7mb 56f 55f
10:54 6 9 mph 1011.6mb 56f 55f
10:48 6 11 mph 1011.9mb 56f 55f
10:42 7 13 mph 1012mb 56f 55f
10:36 10 14 mph 1012.1mb 56f 55f
10:30 5 11 mph 1012mb 56f 55f
10:24 9 15 mph 1012.2mb 56f 55f
10:18 8 13 mph 1012.3mb 56f 55f
10:12 9 14 mph 1012.5mb 56f 55f
10:06 10 15 mph 1012.6mb 56f 55f
10:00 11 14 mph 1012.7mb 56f 56f
9:54 9 15 mph 1012.7mb 56f 56f
9:48 8 13 mph 1012.8mb 56f 56f
9:42 8 11 mph 1012.7mb 56f 56f
9:36 9 16 mph 1012.7mb 56f 56f
9:30 10 15 mph 1012.5mb 56f 56f
9:24 8 11 mph 1012.4mb 56f 56f
9:18 8 11 mph 1012.4mb 56f 56f
9:12 10 15 mph 1012.3mb 56f 56f
9:06 10 13 mph 1012.2mb 56f 57f
9:00 9 14 mph 1012.2mb 56f 57f
8:54 13 17 mph 1012.1mb 56f 57f
8:48 9 17 mph 1012mb 56f 57f
8:42 13 20 mph 1011.9mb 56f 57f
8:36 15 20 mph 1012mb 56f 57f
8:30 10 14 mph 1011.9mb 56f 58f
8:24 10 14 mph 1011.8mb 56f 58f
8:12 10 16 mph 1011.5mb 56f 58f
8:00 11 16 mph 1011.7mb 56f 59f
7:54 10 15 mph 1011.5mb 56f 59f
7:48 10 16 mph 1011.4mb 56f 59f
7:42 10 16 mph 1011.4mb 57f 59f
7:36 7 13 mph 1011.4mb 57f 60f
7:30 9 15 mph 1011.3mb 57f 60f
7:18 10 17 mph 1011.4mb 57f 61f
7:12 16 20 mph 1011.4mb 57f 60f
7:06 8 17 mph 1011.3mb 57f 61f
7:00 13 16 mph 1011.2mb 57f 61f
6:54 10 14 mph 1011mb 57f 62f
6:48 11 16 mph 1010.9mb 57f 63f
6:42 14 20 mph 1010.9mb 58f 63f
6:36 13 16 mph 1010.9mb 58f 63f
6:30 11 17 mph 1010.9mb 58f 63f
6:24 9 17 mph 1010.8mb 58f 63f
6:18 15 21 mph 1010.7mb 58f 63f
6:12 14 20 mph 1010.7mb 58f 63f
6:06 11 20 mph 1010.8mb 58f 64f
6:00 14 23 mph 1010.8mb 59f 63f
5:54 16 20 mph 1010.8mb 59f 63f
5:48 11 20 mph 1010.8mb 59f 64f
5:42 13 21 mph 1010.7mb 59f 64f
5:36 15 22 mph 1010.8mb 59f 64f
5:30 16 22 mph 1010.8mb 59f 64f
5:24 11 20 mph 1010.8mb 59f 65f
5:18 14 20 mph 1010.9mb 59f 65f
5:12 14 24 mph 1010.9mb 59f 65f
5:06 15 20 mph 1010.9mb 59f 64f
5:00 16 21 mph 1011mb 59f 64f
4:54 13 20 mph 1011mb 59f 66f
4:48 13 17 mph 1011.1mb 59f 65f
4:42 13 16 mph 1011mb 59f 66f
4:36 9 18 mph 1011mb 59f 66f
4:30 13 18 mph 1011mb 59f 66f
4:24 14 20 mph 1011.1mb 59f 66f
4:18 15 21 mph 1011.1mb 59f 66f